sensor_id;sensor_type;location;lat;lon;timestamp;temperature;humidity
41533;DHT22;27262;-35.248;149.138;2023-10-08T00:01:21;15.70;60.00
41533;DHT22;27262;-35.248;149.138;2023-10-08T00:03:52;15.80;60.10
41533;DHT22;27262;-35.248;149.138;2023-10-08T00:06:27;15.80;60.20
41533;DHT22;27262;-35.248;149.138;2023-10-08T00:08:57;15.70;60.10
41533;DHT22;27262;-35.248;149.138;2023-10-08T00:11:38;15.80;60.20
41533;DHT22;27262;-35.248;149.138;2023-10-08T00:14:09;15.80;60.10
41533;DHT22;27262;-35.248;149.138;2023-10-08T00:16:41;15.80;60.10
41533;DHT22;27262;-35.248;149.138;2023-10-08T00:19:12;15.80;60.20
41533;DHT22;27262;-35.248;149.138;2023-10-08T00:21:45;15.80;60.10
41533;DHT22;27262;-35.248;149.138;2023-10-08T00:24:17;15.80;60.10
41533;DHT22;27262;-35.248;149.138;2023-10-08T00:26:47;15.80;60.10
41533;DHT22;27262;-35.248;149.138;2023-10-08T00:29:17;15.80;60.10
41533;DHT22;27262;-35.248;149.138;2023-10-08T00:31:54;15.80;60.10
41533;DHT22;27262;-35.248;149.138;2023-10-08T00:34:26;15.80;60.10
41533;DHT22;27262;-35.248;149.138;2023-10-08T00:36:57;15.80;60.10
41533;DHT22;27262;-35.248;149.138;2023-10-08T00:39:27;15.90;60.10
41533;DHT22;27262;-35.248;149.138;2023-10-08T00:42:03;15.80;60.10
41533;DHT22;27262;-35.248;149.138;2023-10-08T00:44:37;15.90;60.10
41533;DHT22;27262;-35.248;149.138;2023-10-08T00:47:23;15.90;60.20
41533;DHT22;27262;-35.248;149.138;2023-10-08T00:49:57;15.90;60.20
41533;DHT22;27262;-35.248;149.138;2023-10-08T00:52:38;15.90;60.20
41533;DHT22;27262;-35.248;149.138;2023-10-08T00:55:15;15.90;60.20
41533;DHT22;27262;-35.248;149.138;2023-10-08T00:57:58;15.90;60.10
41533;DHT22;27262;-35.248;149.138;2023-10-08T01:00:38;15.90;60.10
41533;DHT22;27262;-35.248;149.138;2023-10-08T01:03:11;15.90;60.10
41533;DHT22;27262;-35.248;149.138;2023-10-08T01:05:45;16.00;60.20
41533;DHT22;27262;-35.248;149.138;2023-10-08T01:08:28;16.00;60.10
41533;DHT22;27262;-35.248;149.138;2023-10-08T01:11:22;16.00;60.10
41533;DHT22;27262;-35.248;149.138;2023-10-08T01:14:03;16.00;60.10
41533;DHT22;27262;-35.248;149.138;2023-10-08T01:16:38;16.00;60.20
41533;DHT22;27262;-35.248;149.138;2023-10-08T01:19:11;16.00;60.20
41533;DHT22;27262;-35.248;149.138;2023-10-08T01:21:45;16.00;60.10
41533;DHT22;27262;-35.248;149.138;2023-10-08T01:24:15;16.00;60.10
41533;DHT22;27262;-35.248;149.138;2023-10-08T01:26:47;16.00;60.00
41533;DHT22;27262;-35.248;149.138;2023-10-08T01:29:18;16.10;60.10
41533;DHT22;27262;-35.248;149.138;2023-10-08T01:31:51;16.10;60.10
41533;DHT22;27262;-35.248;149.138;2023-10-08T01:34:26;16.10;60.10
41533;DHT22;27262;-35.248;149.138;2023-10-08T01:37:01;16.10;60.00
41533;DHT22;27262;-35.248;149.138;2023-10-08T01:39:38;16.10;60.10
41533;DHT22;27262;-35.248;149.138;2023-10-08T01:42:15;16.10;60.00
41533;DHT22;27262;-35.248;149.138;2023-10-08T01:44:52;16.10;60.00
41533;DHT22;27262;-35.248;149.138;2023-10-08T01:47:25;16.10;60.00
41533;DHT22;27262;-35.248;149.138;2023-10-08T01:49:55;16.10;60.00
41533;DHT22;27262;-35.248;149.138;2023-10-08T01:52:34;16.20;60.00
41533;DHT22;27262;-35.248;149.138;2023-10-08T01:55:05;16.20;60.00
41533;DHT22;27262;-35.248;149.138;2023-10-08T01:57:39;16.20;60.00
41533;DHT22;27262;-35.248;149.138;2023-10-08T02:00:13;16.10;60.00
41533;DHT22;27262;-35.248;149.138;2023-10-08T02:02:50;16.20;60.00
41533;DHT22;27262;-35.248;149.138;2023-10-08T02:05:21;16.20;60.00
41533;DHT22;27262;-35.248;149.138;2023-10-08T02:07:52;16.20;60.00
41533;DHT22;27262;-35.248;149.138;2023-10-08T02:10:24;16.20;60.00
41533;DHT22;27262;-35.248;149.138;2023-10-08T02:12:54;16.20;59.90
41533;DHT22;27262;-35.248;149.138;2023-10-08T02:15:25;16.20;59.90
41533;DHT22;27262;-35.248;149.138;2023-10-08T02:17:56;16.30;60.00
41533;DHT22;27262;-35.248;149.138;2023-10-08T02:20:28;16.30;60.00
41533;DHT22;27262;-35.248;149.138;2023-10-08T02:23:00;16.30;59.90
41533;DHT22;27262;-35.248;149.138;2023-10-08T02:25:31;16.30;59.90
41533;DHT22;27262;-35.248;149.138;2023-10-08T02:28:04;16.30;59.90
41533;DHT22;27262;-35.248;149.138;2023-10-08T02:30:38;16.30;60.00
41533;DHT22;27262;-35.248;149.138;2023-10-08T02:33:09;16.30;59.90
41533;DHT22;27262;-35.248;149.138;2023-10-08T02:35:46;16.30;59.90
41533;DHT22;27262;-35.248;149.138;2023-10-08T02:38:18;16.30;59.90
41533;DHT22;27262;-35.248;149.138;2023-10-08T02:41:17;16.40;59.90
41533;DHT22;27262;-35.248;149.138;2023-10-08T02:43:48;16.40;60.00
41533;DHT22;27262;-35.248;149.138;2023-10-08T02:46:18;16.30;59.90
41533;DHT22;27262;-35.248;149.138;2023-10-08T02:48:49;16.40;59.90
41533;DHT22;27262;-35.248;149.138;2023-10-08T02:51:22;16.40;59.90
41533;DHT22;27262;-35.248;149.138;2023-10-08T02:53:54;16.40;59.90
41533;DHT22;27262;-35.248;149.138;2023-10-08T02:56:24;16.40;59.90
41533;DHT22;27262;-35.248;149.138;2023-10-08T02:58:55;16.40;59.90
41533;DHT22;27262;-35.248;149.138;2023-10-08T03:01:26;16.50;60.00
41533;DHT22;27262;-35.248;149.138;2023-10-08T03:03:56;16.40;59.80
41533;DHT22;27262;-35.248;149.138;2023-10-08T03:06:34;16.50;59.90
41533;DHT22;27262;-35.248;149.138;2023-10-08T03:09:05;16.50;60.00
41533;DHT22;27262;-35.248;149.138;2023-10-08T03:11:37;16.50;59.90
41533;DHT22;27262;-35.248;149.138;2023-10-08T03:14:09;16.50;59.90
41533;DHT22;27262;-35.248;149.138;2023-10-08T03:16:44;16.50;59.90
41533;DHT22;27262;-35.248;149.138;2023-10-08T03:19:21;16.60;60.00
41533;DHT22;27262;-35.248;149.138;2023-10-08T03:21:51;16.60;59.90
41533;DHT22;27262;-35.248;149.138;2023-10-08T03:24:25;16.60;59.90
41533;DHT22;27262;-35.248;149.138;2023-10-08T03:27:00;16.50;59.90
41533;DHT22;27262;-35.248;149.138;2023-10-08T03:29:37;16.60;59.90
41533;DHT22;27262;-35.248;149.138;2023-10-08T03:32:12;16.60;59.90
41533;DHT22;27262;-35.248;149.138;2023-10-08T03:34:46;16.60;59.90
41533;DHT22;27262;-35.248;149.138;2023-10-08T03:37:20;16.60;59.90
41533;DHT22;27262;-35.248;149.138;2023-10-08T03:40:02;16.70;59.90
41533;DHT22;27262;-35.248;149.138;2023-10-08T03:42:55;16.60;59.90
41533;DHT22;27262;-35.248;149.138;2023-10-08T03:45:26;16.60;59.90
41533;DHT22;27262;-35.248;149.138;2023-10-08T03:48:14;16.70;59.90
41533;DHT22;27262;-35.248;149.138;2023-10-08T03:50:46;16.70;59.90
41533;DHT22;27262;-35.248;149.138;2023-10-08T03:53:26;16.70;59.90
41533;DHT22;27262;-35.248;149.138;2023-10-08T03:56:01;16.70;59.90
41533;DHT22;27262;-35.248;149.138;2023-10-08T03:58:35;16.80;59.90
41533;DHT22;27262;-35.248;149.138;2023-10-08T04:01:11;16.70;59.90
41533;DHT22;27262;-35.248;149.138;2023-10-08T04:03:48;16.70;59.90
41533;DHT22;27262;-35.248;149.138;2023-10-08T04:06:22;16.80;59.90
41533;DHT22;27262;-35.248;149.138;2023-10-08T04:09:09;16.80;59.90
41533;DHT22;27262;-35.248;149.138;2023-10-08T04:11:40;16.80;59.90
41533;DHT22;27262;-35.248;149.138;2023-10-08T04:14:25;16.80;59.90
41533;DHT22;27262;-35.248;149.138;2023-10-08T04:16:57;16.90;59.90
41533;DHT22;27262;-35.248;149.138;2023-10-08T04:19:29;16.90;59.90
41533;DHT22;27262;-35.248;149.138;2023-10-08T04:22:00;16.90;59.90
41533;DHT22;27262;-35.248;149.138;2023-10-08T04:24:31;16.90;59.90
41533;DHT22;27262;-35.248;149.138;2023-10-08T04:27:15;16.90;59.90
41533;DHT22;27262;-35.248;149.138;2023-10-08T04:29:48;16.90;59.90
41533;DHT22;27262;-35.248;149.138;2023-10-08T04:32:19;16.90;59.90
41533;DHT22;27262;-35.248;149.138;2023-10-08T04:34:54;16.90;59.80
41533;DHT22;27262;-35.248;149.138;2023-10-08T04:37:27;16.90;59.80
41533;DHT22;27262;-35.248;149.138;2023-10-08T04:40:02;17.00;59.90
41533;DHT22;27262;-35.248;149.138;2023-10-08T04:42:34;17.00;59.90
41533;DHT22;27262;-35.248;149.138;2023-10-08T04:45:10;17.00;59.90
41533;DHT22;27262;-35.248;149.138;2023-10-08T04:47:43;17.00;59.80
41533;DHT22;27262;-35.248;149.138;2023-10-08T04:50:13;17.00;59.80
41533;DHT22;27262;-35.248;149.138;2023-10-08T04:52:47;17.00;59.80
41533;DHT22;27262;-35.248;149.138;2023-10-08T04:55:28;17.10;59.90
41533;DHT22;27262;-35.248;149.138;2023-10-08T04:58:00;17.10;59.80
41533;DHT22;27262;-35.248;149.138;2023-10-08T05:00:34;17.10;59.80
41533;DHT22;27262;-35.248;149.138;2023-10-08T05:03:13;17.10;59.80
41533;DHT22;27262;-35.248;149.138;2023-10-08T05:05:44;17.20;59.90
41533;DHT22;27262;-35.248;149.138;2023-10-08T05:08:37;17.20;59.90
41533;DHT22;27262;-35.248;149.138;2023-10-08T05:11:26;17.20;59.90
41533;DHT22;27262;-35.248;149.138;2023-10-08T05:14:21;17.20;59.90
41533;DHT22;27262;-35.248;149.138;2023-10-08T05:17:07;17.20;59.80
41533;DHT22;27262;-35.248;149.138;2023-10-08T05:19:50;17.20;59.90
41533;DHT22;27262;-35.248;149.138;2023-10-08T05:22:40;17.20;59.80
41533;DHT22;27262;-35.248;149.138;2023-10-08T05:25:13;17.30;59.90
41533;DHT22;27262;-35.248;149.138;2023-10-08T05:27:46;17.30;59.90
41533;DHT22;27262;-35.248;149.138;2023-10-08T05:30:36;17.20;59.80
41533;DHT22;27262;-35.248;149.138;2023-10-08T05:33:08;17.30;59.70
41533;DHT22;27262;-35.248;149.138;2023-10-08T05:35:42;17.30;59.80
41533;DHT22;27262;-35.248;149.138;2023-10-08T05:38:17;17.30;59.80
41533;DHT22;27262;-35.248;149.138;2023-10-08T05:40:54;17.40;59.80
41533;DHT22;27262;-35.248;149.138;2023-10-08T05:43:35;17.30;59.70
41533;DHT22;27262;-35.248;149.138;2023-10-08T05:46:15;17.40;59.80
41533;DHT22;27262;-35.248;149.138;2023-10-08T05:48:54;17.40;59.80
41533;DHT22;27262;-35.248;149.138;2023-10-08T05:51:37;17.40;59.80
41533;DHT22;27262;-35.248;149.138;2023-10-08T05:57:05;17.40;59.70
41533;DHT22;27262;-35.248;149.138;2023-10-08T05:59:41;17.40;59.70
41533;DHT22;27262;-35.248;149.138;2023-10-08T06:02:31;17.50;59.80
41533;DHT22;27262;-35.248;149.138;2023-10-08T06:05:09;17.50;59.80
41533;DHT22;27262;-35.248;149.138;2023-10-08T06:07:44;17.50;59.80
41533;DHT22;27262;-35.248;149.138;2023-10-08T06:10:29;17.50;59.80
41533;DHT22;27262;-35.248;149.138;2023-10-08T06:13:05;17.60;59.80
41533;DHT22;27262;-35.248;149.138;2023-10-08T06:15:53;17.50;59.70
41533;DHT22;27262;-35.248;149.138;2023-10-08T06:18:28;17.60;59.70
41533;DHT22;27262;-35.248;149.138;2023-10-08T06:21:02;17.50;59.70
41533;DHT22;27262;-35.248;149.138;2023-10-08T06:23:45;17.60;59.60
41533;DHT22;27262;-35.248;149.138;2023-10-08T06:26:16;17.60;59.70
41533;DHT22;27262;-35.248;149.138;2023-10-08T06:28:50;17.60;59.60
41533;DHT22;27262;-35.248;149.138;2023-10-08T06:31:26;17.60;59.60
41533;DHT22;27262;-35.248;149.138;2023-10-08T06:33:59;17.60;59.60
41533;DHT22;27262;-35.248;149.138;2023-10-08T06:36:33;17.60;60.30
41533;DHT22;27262;-35.248;149.138;2023-10-08T06:39:03;17.60;59.60
41533;DHT22;27262;-35.248;149.138;2023-10-08T06:41:33;17.60;59.60
41533;DHT22;27262;-35.248;149.138;2023-10-08T06:44:15;17.70;59.60
41533;DHT22;27262;-35.248;149.138;2023-10-08T06:46:46;17.70;59.60
41533;DHT22;27262;-35.248;149.138;2023-10-08T06:49:17;17.70;59.60
41533;DHT22;27262;-35.248;149.138;2023-10-08T06:51:49;17.70;59.50
41533;DHT22;27262;-35.248;149.138;2023-10-08T06:54:20;17.70;59.50
41533;DHT22;27262;-35.248;149.138;2023-10-08T06:56:52;17.70;59.50
41533;DHT22;27262;-35.248;149.138;2023-10-08T06:59:22;17.70;60.10
41533;DHT22;27262;-35.248;149.138;2023-10-08T07:01:53;17.80;59.50
41533;DHT22;27262;-35.248;149.138;2023-10-08T07:04:24;17.80;59.50
41533;DHT22;27262;-35.248;149.138;2023-10-08T07:06:54;17.80;59.50
41533;DHT22;27262;-35.248;149.138;2023-10-08T07:09:25;17.80;59.50
41533;DHT22;27262;-35.248;149.138;2023-10-08T07:11:58;17.80;59.50
41533;DHT22;27262;-35.248;149.138;2023-10-08T07:14:35;17.80;59.50
41533;DHT22;27262;-35.248;149.138;2023-10-08T07:17:05;17.80;59.50
41533;DHT22;27262;-35.248;149.138;2023-10-08T07:19:38;17.80;59.50
41533;DHT22;27262;-35.248;149.138;2023-10-08T07:22:10;17.80;59.40
41533;DHT22;27262;-35.248;149.138;2023-10-08T07:24:54;17.90;59.50
41533;DHT22;27262;-35.248;149.138;2023-10-08T07:27:26;17.90;59.50
41533;DHT22;27262;-35.248;149.138;2023-10-08T07:30:07;17.80;59.40
41533;DHT22;27262;-35.248;149.138;2023-10-08T07:32:40;17.80;59.40
41533;DHT22;27262;-35.248;149.138;2023-10-08T07:35:10;17.80;59.40
41533;DHT22;27262;-35.248;149.138;2023-10-08T07:37:49;17.90;59.40
41533;DHT22;27262;-35.248;149.138;2023-10-08T07:40:23;17.90;59.40
41533;DHT22;27262;-35.248;149.138;2023-10-08T07:42:58;17.90;59.40
41533;DHT22;27262;-35.248;149.138;2023-10-08T07:45:37;17.90;59.40
41533;DHT22;27262;-35.248;149.138;2023-10-08T07:48:08;17.90;59.40
41533;DHT22;27262;-35.248;149.138;2023-10-08T07:50:44;17.90;59.30
41533;DHT22;27262;-35.248;149.138;2023-10-08T07:53:15;17.90;59.30
41533;DHT22;27262;-35.248;149.138;2023-10-08T07:55:50;17.90;59.30
41533;DHT22;27262;-35.248;149.138;2023-10-08T07:58:21;17.90;59.30
41533;DHT22;27262;-35.248;149.138;2023-10-08T08:00:51;17.90;59.30
41533;DHT22;27262;-35.248;149.138;2023-10-08T08:03:21;17.90;59.30
41533;DHT22;27262;-35.248;149.138;2023-10-08T08:05:53;18.00;59.30
41533;DHT22;27262;-35.248;149.138;2023-10-08T08:08:23;17.90;59.30
41533;DHT22;27262;-35.248;149.138;2023-10-08T08:10:57;17.90;59.30
41533;DHT22;27262;-35.248;149.138;2023-10-08T08:13:46;18.00;59.30
41533;DHT22;27262;-35.248;149.138;2023-10-08T08:16:17;18.00;59.30
41533;DHT22;27262;-35.248;149.138;2023-10-08T08:18:49;17.90;59.30
41533;DHT22;27262;-35.248;149.138;2023-10-08T08:21:21;17.90;59.20
41533;DHT22;27262;-35.248;149.138;2023-10-08T08:23:53;18.00;59.30
41533;DHT22;27262;-35.248;149.138;2023-10-08T08:26:34;18.00;59.30
41533;DHT22;27262;-35.248;149.138;2023-10-08T08:29:20;17.90;59.20
41533;DHT22;27262;-35.248;149.138;2023-10-08T08:31:50;17.90;59.30
41533;DHT22;27262;-35.248;149.138;2023-10-08T08:34:23;18.00;59.30
41533;DHT22;27262;-35.248;149.138;2023-10-08T08:36:54;18.00;59.30
41533;DHT22;27262;-35.248;149.138;2023-10-08T08:39:24;18.00;59.30
41533;DHT22;27262;-35.248;149.138;2023-10-08T08:42:09;18.00;59.30
41533;DHT22;27262;-35.248;149.138;2023-10-08T08:44:42;18.00;59.30
41533;DHT22;27262;-35.248;149.138;2023-10-08T08:47:18;18.00;59.30
41533;DHT22;27262;-35.248;149.138;2023-10-08T08:49:57;18.00;59.30
41533;DHT22;27262;-35.248;149.138;2023-10-08T08:52:29;18.00;59.30
41533;DHT22;27262;-35.248;149.138;2023-10-08T08:55:00;18.00;59.30
41533;DHT22;27262;-35.248;149.138;2023-10-08T08:57:38;18.00;59.30
41533;DHT22;27262;-35.248;149.138;2023-10-08T09:00:13;18.00;59.30
41533;DHT22;27262;-35.248;149.138;2023-10-08T09:02:45;18.00;59.30
41533;DHT22;27262;-35.248;149.138;2023-10-08T09:05:18;18.00;59.30
41533;DHT22;27262;-35.248;149.138;2023-10-08T09:08:05;18.00;59.30
41533;DHT22;27262;-35.248;149.138;2023-10-08T09:10:38;18.00;59.30
41533;DHT22;27262;-35.248;149.138;2023-10-08T09:13:21;18.00;59.30
41533;DHT22;27262;-35.248;149.138;2023-10-08T09:16:14;18.00;59.30
41533;DHT22;27262;-35.248;149.138;2023-10-08T09:18:47;18.00;59.30
41533;DHT22;27262;-35.248;149.138;2023-10-08T09:21:19;18.00;59.30
41533;DHT22;27262;-35.248;149.138;2023-10-08T09:24:19;18.00;59.30
41533;DHT22;27262;-35.248;149.138;2023-10-08T09:26:49;18.00;59.30
41533;DHT22;27262;-35.248;149.138;2023-10-08T09:29:24;18.00;59.30
41533;DHT22;27262;-35.248;149.138;2023-10-08T09:31:58;18.00;59.30
41533;DHT22;27262;-35.248;149.138;2023-10-08T09:34:32;18.00;59.30
41533;DHT22;27262;-35.248;149.138;2023-10-08T09:37:02;18.00;59.30
41533;DHT22;27262;-35.248;149.138;2023-10-08T09:39:33;17.90;59.30
41533;DHT22;27262;-35.248;149.138;2023-10-08T09:42:07;17.90;59.30
41533;DHT22;27262;-35.248;149.138;2023-10-08T09:44:41;18.00;59.30
41533;DHT22;27262;-35.248;149.138;2023-10-08T09:47:13;17.90;59.30
41533;DHT22;27262;-35.248;149.138;2023-10-08T09:50:04;18.00;59.30
41533;DHT22;27262;-35.248;149.138;2023-10-08T09:53:09;18.00;59.20
41533;DHT22;27262;-35.248;149.138;2023-10-08T09:58:25;17.90;59.30
41533;DHT22;27262;-35.248;149.138;2023-10-08T10:00:57;17.90;59.30
41533;DHT22;27262;-35.248;149.138;2023-10-08T10:03:28;18.00;59.30
41533;DHT22;27262;-35.248;149.138;2023-10-08T10:05:59;17.90;59.30
41533;DHT22;27262;-35.248;149.138;2023-10-08T10:08:30;17.90;59.30
41533;DHT22;27262;-35.248;149.138;2023-10-08T10:11:05;17.90;59.30
41533;DHT22;27262;-35.248;149.138;2023-10-08T10:13:41;18.00;59.30
41533;DHT22;27262;-35.248;149.138;2023-10-08T10:16:18;18.00;59.30
41533;DHT22;27262;-35.248;149.138;2023-10-08T10:19:18;18.00;59.30
41533;DHT22;27262;-35.248;149.138;2023-10-08T10:21:52;17.90;59.30
41533;DHT22;27262;-35.248;149.138;2023-10-08T10:24:33;17.90;59.30
41533;DHT22;27262;-35.248;149.138;2023-10-08T10:27:12;18.00;59.30
41533;DHT22;27262;-35.248;149.138;2023-10-08T10:29:46;17.90;59.30
41533;DHT22;27262;-35.248;149.138;2023-10-08T10:32:17;17.90;59.30
41533;DHT22;27262;-35.248;149.138;2023-10-08T10:34:48;17.90;59.30
41533;DHT22;27262;-35.248;149.138;2023-10-08T10:37:21;17.90;59.30
41533;DHT22;27262;-35.248;149.138;2023-10-08T10:39:54;17.90;59.30
41533;DHT22;27262;-35.248;149.138;2023-10-08T10:42:30;17.90;59.30
41533;DHT22;27262;-35.248;149.138;2023-10-08T10:45:16;17.90;59.30
41533;DHT22;27262;-35.248;149.138;2023-10-08T10:48:06;17.90;59.30
41533;DHT22;27262;-35.248;149.138;2023-10-08T10:50:52;17.80;59.30
41533;DHT22;27262;-35.248;149.138;2023-10-08T10:53:36;17.90;59.30
41533;DHT22;27262;-35.248;149.138;2023-10-08T10:56:27;17.80;59.30
41533;DHT22;27262;-35.248;149.138;2023-10-08T10:59:01;17.80;59.30
41533;DHT22;27262;-35.248;149.138;2023-10-08T11:01:51;17.90;59.40
41533;DHT22;27262;-35.248;149.138;2023-10-08T11:04:59;17.90;59.30
41533;DHT22;27262;-35.248;149.138;2023-10-08T11:07:37;17.80;59.30
41533;DHT22;27262;-35.248;149.138;2023-10-08T11:10:10;17.80;59.30
41533;DHT22;27262;-35.248;149.138;2023-10-08T11:12:46;17.80;59.30
41533;DHT22;27262;-35.248;149.138;2023-10-08T11:15:22;17.80;59.30
41533;DHT22;27262;-35.248;149.138;2023-10-08T11:17:56;17.80;59.30
41533;DHT22;27262;-35.248;149.138;2023-10-08T11:20:29;17.80;59.40
41533;DHT22;27262;-35.248;149.138;2023-10-08T11:23:02;17.80;59.30
41533;DHT22;27262;-35.248;149.138;2023-10-08T11:26:00;17.80;59.40
41533;DHT22;27262;-35.248;149.138;2023-10-08T11:28:36;17.80;59.30
41533;DHT22;27262;-35.248;149.138;2023-10-08T11:31:12;17.80;59.40
41533;DHT22;27262;-35.248;149.138;2023-10-08T11:33:44;17.80;59.40
41533;DHT22;27262;-35.248;149.138;2023-10-08T11:36:24;17.80;59.40
41533;DHT22;27262;-35.248;149.138;2023-10-08T11:39:13;17.80;59.40
41533;DHT22;27262;-35.248;149.138;2023-10-08T11:42:00;17.80;59.40
41533;DHT22;27262;-35.248;149.138;2023-10-08T11:44:36;17.80;59.40
41533;DHT22;27262;-35.248;149.138;2023-10-08T11:47:06;17.70;59.40
41533;DHT22;27262;-35.248;149.138;2023-10-08T11:49:50;17.70;59.40
41533;DHT22;27262;-35.248;149.138;2023-10-08T11:52:27;17.70;59.40
41533;DHT22;27262;-35.248;149.138;2023-10-08T11:54:57;17.70;59.40
41533;DHT22;27262;-35.248;149.138;2023-10-08T11:57:28;17.70;59.40
41533;DHT22;27262;-35.248;149.138;2023-10-08T12:00:00;17.70;59.40
41533;DHT22;27262;-35.248;149.138;2023-10-08T12:02:59;17.70;59.40
41533;DHT22;27262;-35.248;149.138;2023-10-08T12:05:31;17.70;59.40
41533;DHT22;27262;-35.248;149.138;2023-10-08T12:08:04;17.70;59.40
41533;DHT22;27262;-35.248;149.138;2023-10-08T12:10:39;17.70;59.40
41533;DHT22;27262;-35.248;149.138;2023-10-08T12:13:10;17.70;59.40
41533;DHT22;27262;-35.248;149.138;2023-10-08T12:15:40;17.70;59.40
41533;DHT22;27262;-35.248;149.138;2023-10-08T12:18:13;17.70;59.40
41533;DHT22;27262;-35.248;149.138;2023-10-08T12:20:59;17.70;59.40
41533;DHT22;27262;-35.248;149.138;2023-10-08T12:23:31;17.70;59.40
41533;DHT22;27262;-35.248;149.138;2023-10-08T12:26:03;17.70;59.40
41533;DHT22;27262;-35.248;149.138;2023-10-08T12:28:37;17.70;59.40
41533;DHT22;27262;-35.248;149.138;2023-10-08T12:31:07;17.70;59.40
41533;DHT22;27262;-35.248;149.138;2023-10-08T12:33:39;17.70;59.40
41533;DHT22;27262;-35.248;149.138;2023-10-08T12:36:11;17.70;59.40
41533;DHT22;27262;-35.248;149.138;2023-10-08T12:38:43;17.70;59.40
41533;DHT22;27262;-35.248;149.138;2023-10-08T12:41:13;17.70;59.40
41533;DHT22;27262;-35.248;149.138;2023-10-08T12:43:45;17.70;59.40
41533;DHT22;27262;-35.248;149.138;2023-10-08T12:46:15;17.70;59.40
41533;DHT22;27262;-35.248;149.138;2023-10-08T12:48:54;17.70;59.40
41533;DHT22;27262;-35.248;149.138;2023-10-08T12:51:25;17.60;59.40
41533;DHT22;27262;-35.248;149.138;2023-10-08T12:53:56;17.60;59.30
41533;DHT22;27262;-35.248;149.138;2023-10-08T12:56:49;17.60;59.30
41533;DHT22;27262;-35.248;149.138;2023-10-08T12:59:19;17.60;59.40
41533;DHT22;27262;-35.248;149.138;2023-10-08T13:01:53;17.60;59.40
41533;DHT22;27262;-35.248;149.138;2023-10-08T13:04:24;17.60;59.30
41533;DHT22;27262;-35.248;149.138;2023-10-08T13:07:04;17.60;59.30
41533;DHT22;27262;-35.248;149.138;2023-10-08T13:09:34;17.50;59.30
41533;DHT22;27262;-35.248;149.138;2023-10-08T13:12:06;17.60;59.40
41533;DHT22;27262;-35.248;149.138;2023-10-08T13:14:36;17.60;59.40
41533;DHT22;27262;-35.248;149.138;2023-10-08T13:17:07;17.60;59.40
41533;DHT22;27262;-35.248;149.138;2023-10-08T13:19:40;17.60;59.40
41533;DHT22;27262;-35.248;149.138;2023-10-08T13:22:10;17.50;59.40
41533;DHT22;27262;-35.248;149.138;2023-10-08T13:24:49;17.50;59.40
41533;DHT22;27262;-35.248;149.138;2023-10-08T13:27:19;17.50;59.40
41533;DHT22;27262;-35.248;149.138;2023-10-08T13:29:50;17.50;59.40
41533;DHT22;27262;-35.248;149.138;2023-10-08T13:32:21;17.50;59.40
41533;DHT22;27262;-35.248;149.138;2023-10-08T13:34:53;17.50;59.40
41533;DHT22;27262;-35.248;149.138;2023-10-08T13:37:23;17.50;59.40
41533;DHT22;27262;-35.248;149.138;2023-10-08T13:39:53;17.50;59.40
41533;DHT22;27262;-35.248;149.138;2023-10-08T13:42:26;17.50;59.80
41533;DHT22;27262;-35.248;149.138;2023-10-08T13:44:56;17.50;59.50
41533;DHT22;27262;-35.248;149.138;2023-10-08T13:47:37;17.50;59.40
41533;DHT22;27262;-35.248;149.138;2023-10-08T13:50:09;17.50;59.50
41533;DHT22;27262;-35.248;149.138;2023-10-08T13:52:42;17.50;59.50
41533;DHT22;27262;-35.248;149.138;2023-10-08T13:55:14;17.40;59.40
41533;DHT22;27262;-35.248;149.138;2023-10-08T13:57:46;17.40;59.40
41533;DHT22;27262;-35.248;149.138;2023-10-08T14:00:18;17.40;59.40
41533;DHT22;27262;-35.248;149.138;2023-10-08T14:02:55;17.40;59.50
41533;DHT22;27262;-35.248;149.138;2023-10-08T14:05:26;17.40;59.50
41533;DHT22;27262;-35.248;149.138;2023-10-08T14:07:59;17.40;59.50
41533;DHT22;27262;-35.248;149.138;2023-10-08T14:10:32;17.40;59.50
41533;DHT22;27262;-35.248;149.138;2023-10-08T14:13:02;17.40;59.50
41533;DHT22;27262;-35.248;149.138;2023-10-08T14:15:33;17.40;59.50
41533;DHT22;27262;-35.248;149.138;2023-10-08T14:18:06;17.40;59.50
41533;DHT22;27262;-35.248;149.138;2023-10-08T14:20:38;17.40;59.50
41533;DHT22;27262;-35.248;149.138;2023-10-08T14:23:10;17.30;59.50
41533;DHT22;27262;-35.248;149.138;2023-10-08T14:25:40;17.30;59.40
41533;DHT22;27262;-35.248;149.138;2023-10-08T14:28:14;17.30;59.40
41533;DHT22;27262;-35.248;149.138;2023-10-08T14:30:51;17.30;59.40
41533;DHT22;27262;-35.248;149.138;2023-10-08T14:33:24;17.30;59.30
41533;DHT22;27262;-35.248;149.138;2023-10-08T14:35:57;17.30;59.30
41533;DHT22;27262;-35.248;149.138;2023-10-08T14:38:45;17.30;59.30
41533;DHT22;27262;-35.248;149.138;2023-10-08T14:41:34;17.30;59.40
41533;DHT22;27262;-35.248;149.138;2023-10-08T14:44:22;17.30;59.40
41533;DHT22;27262;-35.248;149.138;2023-10-08T14:46:52;17.20;59.30
41533;DHT22;27262;-35.248;149.138;2023-10-08T14:49:25;17.20;59.30
41533;DHT22;27262;-35.248;149.138;2023-10-08T14:51:55;17.30;59.40
41533;DHT22;27262;-35.248;149.138;2023-10-08T14:54:26;17.30;59.30
41533;DHT22;27262;-35.248;149.138;2023-10-08T14:56:57;17.20;59.30
41533;DHT22;27262;-35.248;149.138;2023-10-08T14:59:28;17.20;59.20
41533;DHT22;27262;-35.248;149.138;2023-10-08T15:02:00;17.20;59.30
41533;DHT22;27262;-35.248;149.138;2023-10-08T15:04:30;17.20;59.30
41533;DHT22;27262;-35.248;149.138;2023-10-08T15:07:02;17.20;59.20
41533;DHT22;27262;-35.248;149.138;2023-10-08T15:09:32;17.20;59.20
41533;DHT22;27262;-35.248;149.138;2023-10-08T15:12:03;17.20;59.20
41533;DHT22;27262;-35.248;149.138;2023-10-08T15:14:33;17.20;59.20
41533;DHT22;27262;-35.248;149.138;2023-10-08T15:17:04;17.20;59.80
41533;DHT22;27262;-35.248;149.138;2023-10-08T15:19:35;17.20;59.20
41533;DHT22;27262;-35.248;149.138;2023-10-08T15:22:05;17.20;59.20
41533;DHT22;27262;-35.248;149.138;2023-10-08T15:24:35;17.20;59.20
41533;DHT22;27262;-35.248;149.138;2023-10-08T15:27:06;17.20;59.10
41533;DHT22;27262;-35.248;149.138;2023-10-08T15:29:40;17.10;59.10
41533;DHT22;27262;-35.248;149.138;2023-10-08T15:32:11;17.10;59.10
41533;DHT22;27262;-35.248;149.138;2023-10-08T15:34:41;17.10;59.10
41533;DHT22;27262;-35.248;149.138;2023-10-08T15:37:15;17.10;59.10
41533;DHT22;27262;-35.248;149.138;2023-10-08T15:39:45;17.10;59.10
41533;DHT22;27262;-35.248;149.138;2023-10-08T15:42:16;17.10;59.10